ENSO/SRP METAR and TAF weather

Enter ICAO airport designator
Station Type Date Time Source
ENSO METAR 2020/01/23 15:20 UTC NOAA

ENSO 231520Z 24011KT 2000 RADZ BR FEW003 SCT005 BKN008 07/07 Q1018


Station Type Date Time Source
ENSO Decoded METAR 2020/01/23 15:20 UTC NOAA

Stord / Soerstokken, Norway (ENSO) 59-48N 005-21E
Jan 23, 2020 - 10:20 AM EST / 2020.01.23 1520 UTC
Wind: from the WSW (240 degrees) at 13 MPH (11 KT):0
Visibility: 1 mile(s):0
Sky conditions: mostly cloudy
Weather: rain, drizzle; mist
Temperature: 44 F (7 C)
Dew Point: 44 F (7 C)
Relative Humidity: 100%
Pressure (altimeter): 30.06 in. Hg (1018 hPa)
ob: ENSO 231520Z 24011KT 2000 RADZ BR FEW003 SCT005 BKN008 07/07 Q1018
cycle: 15

Station Type Date Time Source
ENSO TAF UTC NOAA

Error!

Example: see airport list